sensor_id;sensor_type;location;lat;lon;timestamp;P1;durP1;ratioP1;P2;durP2;ratioP2
30384;SDS011;17181;51.002;4.096;2023-02-15T00:01:17;41.17;;;18.60;;
30384;SDS011;17181;51.002;4.096;2023-02-15T00:03:43;50.53;;;18.43;;
30384;SDS011;17181;51.002;4.096;2023-02-15T00:06:08;46.63;;;19.77;;
30384;SDS011;17181;51.002;4.096;2023-02-15T00:08:34;46.70;;;20.57;;
30384;SDS011;17181;51.002;4.096;2023-02-15T00:11:07;54.93;;;21.10;;
30384;SDS011;17181;51.002;4.096;2023-02-15T00:13:38;39.20;;;16.50;;
30384;SDS011;17181;51.002;4.096;2023-02-15T00:16:07;38.43;;;19.03;;
30384;SDS011;17181;51.002;4.096;2023-02-15T00:18:35;36.47;;;17.97;;
30384;SDS011;17181;51.002;4.096;2023-02-15T00:21:19;34.07;;;16.30;;
30384;SDS011;17181;51.002;4.096;2023-02-15T00:23:44;34.20;;;17.10;;
30384;SDS011;17181;51.002;4.096;2023-02-15T00:26:11;41.20;;;19.23;;
30384;SDS011;17181;51.002;4.096;2023-02-15T00:28:38;41.33;;;19.90;;
30384;SDS011;17181;51.002;4.096;2023-02-15T00:31:05;37.60;;;18.90;;
30384;SDS011;17181;51.002;4.096;2023-02-15T00:33:34;23.93;;;13.60;;
30384;SDS011;17181;51.002;4.096;2023-02-15T00:36:00;38.47;;;17.10;;
30384;SDS011;17181;51.002;4.096;2023-02-15T00:38:28;32.43;;;14.70;;
30384;SDS011;17181;51.002;4.096;2023-02-15T00:40:57;34.40;;;14.77;;
30384;SDS011;17181;51.002;4.096;2023-02-15T00:43:25;39.00;;;16.07;;
30384;SDS011;17181;51.002;4.096;2023-02-15T00:45:51;34.63;;;14.57;;
30384;SDS011;17181;51.002;4.096;2023-02-15T00:48:17;30.10;;;13.07;;
30384;SDS011;17181;51.002;4.096;2023-02-15T00:50:48;40.27;;;19.43;;
30384;SDS011;17181;51.002;4.096;2023-02-15T00:53:15;38.03;;;17.87;;
30384;SDS011;17181;51.002;4.096;2023-02-15T00:55:41;37.43;;;17.47;;
30384;SDS011;17181;51.002;4.096;2023-02-15T00:58:08;41.13;;;18.97;;
30384;SDS011;17181;51.002;4.096;2023-02-15T01:00:34;48.93;;;20.83;;
30384;SDS011;17181;51.002;4.096;2023-02-15T01:03:00;38.80;;;17.87;;
30384;SDS011;17181;51.002;4.096;2023-02-15T01:05:26;34.83;;;17.20;;
30384;SDS011;17181;51.002;4.096;2023-02-15T01:07:52;46.93;;;21.43;;
30384;SDS011;17181;51.002;4.096;2023-02-15T01:10:18;41.70;;;18.87;;
30384;SDS011;17181;51.002;4.096;2023-02-15T01:12:43;37.37;;;17.37;;
30384;SDS011;17181;51.002;4.096;2023-02-15T01:15:09;39.47;;;16.03;;
30384;SDS011;17181;51.002;4.096;2023-02-15T01:17:36;56.13;;;19.07;;
30384;SDS011;17181;51.002;4.096;2023-02-15T01:20:03;36.13;;;15.67;;
30384;SDS011;17181;51.002;4.096;2023-02-15T01:22:29;30.07;;;16.50;;
30384;SDS011;17181;51.002;4.096;2023-02-15T01:24:55;49.97;;;20.07;;
30384;SDS011;17181;51.002;4.096;2023-02-15T01:27:20;38.43;;;18.60;;
30384;SDS011;17181;51.002;4.096;2023-02-15T01:29:46;49.20;;;21.90;;
30384;SDS011;17181;51.002;4.096;2023-02-15T01:32:13;38.13;;;20.00;;
30384;SDS011;17181;51.002;4.096;2023-02-15T01:34:42;44.17;;;19.77;;
30384;SDS011;17181;51.002;4.096;2023-02-15T01:37:07;42.23;;;18.20;;
30384;SDS011;17181;51.002;4.096;2023-02-15T01:39:33;37.57;;;19.90;;
30384;SDS011;17181;51.002;4.096;2023-02-15T01:41:59;41.97;;;19.00;;
30384;SDS011;17181;51.002;4.096;2023-02-15T01:47:22;32.90;;;14.87;;
30384;SDS011;17181;51.002;4.096;2023-02-15T01:50:12;32.93;;;17.27;;
30384;SDS011;17181;51.002;4.096;2023-02-15T01:56:11;39.37;;;15.87;;
30384;SDS011;17181;51.002;4.096;2023-02-15T01:58:47;34.43;;;16.70;;
30384;SDS011;17181;51.002;4.096;2023-02-15T02:01:15;37.60;;;16.23;;
30384;SDS011;17181;51.002;4.096;2023-02-15T02:06:23;39.07;;;15.07;;
30384;SDS011;17181;51.002;4.096;2023-02-15T02:08:50;31.63;;;15.07;;
30384;SDS011;17181;51.002;4.096;2023-02-15T02:11:17;44.87;;;17.83;;
30384;SDS011;17181;51.002;4.096;2023-02-15T02:13:45;34.83;;;16.70;;
30384;SDS011;17181;51.002;4.096;2023-02-15T02:18:44;41.10;;;18.97;;
30384;SDS011;17181;51.002;4.096;2023-02-15T02:21:35;31.10;;;17.10;;
30384;SDS011;17181;51.002;4.096;2023-02-15T02:30:45;30.00;;;14.47;;
30384;SDS011;17181;51.002;4.096;2023-02-15T02:33:36;39.30;;;18.13;;
30384;SDS011;17181;51.002;4.096;2023-02-15T02:44:47;32.90;;;17.13;;
30384;SDS011;17181;51.002;4.096;2023-02-15T02:47:29;39.00;;;18.57;;
30384;SDS011;17181;51.002;4.096;2023-02-15T02:50:25;47.17;;;17.97;;
30384;SDS011;17181;51.002;4.096;2023-02-15T02:52:52;41.77;;;17.93;;
30384;SDS011;17181;51.002;4.096;2023-02-15T02:55:24;40.13;;;18.73;;
30384;SDS011;17181;51.002;4.096;2023-02-15T02:58:37;42.33;;;15.83;;
30384;SDS011;17181;51.002;4.096;2023-02-15T03:01:15;32.33;;;15.37;;
30384;SDS011;17181;51.002;4.096;2023-02-15T03:06:44;37.87;;;15.77;;
30384;SDS011;17181;51.002;4.096;2023-02-15T03:12:00;27.63;;;14.03;;
30384;SDS011;17181;51.002;4.096;2023-02-15T03:14:29;41.60;;;16.10;;
30384;SDS011;17181;51.002;4.096;2023-02-15T03:16:55;40.40;;;16.40;;
30384;SDS011;17181;51.002;4.096;2023-02-15T03:19:23;38.73;;;17.43;;
30384;SDS011;17181;51.002;4.096;2023-02-15T03:21:56;39.93;;;16.40;;
30384;SDS011;17181;51.002;4.096;2023-02-15T03:24:44;33.30;;;15.53;;
30384;SDS011;17181;51.002;4.096;2023-02-15T03:27:13;30.03;;;14.07;;
30384;SDS011;17181;51.002;4.096;2023-02-15T03:29:45;36.43;;;16.37;;
30384;SDS011;17181;51.002;4.096;2023-02-15T03:32:14;43.23;;;17.37;;
30384;SDS011;17181;51.002;4.096;2023-02-15T03:34:41;33.40;;;14.67;;
30384;SDS011;17181;51.002;4.096;2023-02-15T03:37:15;40.97;;;15.00;;
30384;SDS011;17181;51.002;4.096;2023-02-15T03:40:00;38.17;;;16.80;;
30384;SDS011;17181;51.002;4.096;2023-02-15T03:43:21;28.97;;;14.17;;
30384;SDS011;17181;51.002;4.096;2023-02-15T03:45:56;33.80;;;15.43;;
30384;SDS011;17181;51.002;4.096;2023-02-15T03:48:30;34.23;;;13.47;;
30384;SDS011;17181;51.002;4.096;2023-02-15T03:51:11;29.43;;;13.30;;
30384;SDS011;17181;51.002;4.096;2023-02-15T03:54:11;33.73;;;12.87;;
30384;SDS011;17181;51.002;4.096;2023-02-15T03:57:03;24.67;;;14.27;;
30384;SDS011;17181;51.002;4.096;2023-02-15T03:59:48;32.87;;;16.43;;
30384;SDS011;17181;51.002;4.096;2023-02-15T04:02:38;26.77;;;14.40;;
30384;SDS011;17181;51.002;4.096;2023-02-15T04:05:11;35.07;;;14.57;;
30384;SDS011;17181;51.002;4.096;2023-02-15T04:07:37;41.53;;;16.83;;
30384;SDS011;17181;51.002;4.096;2023-02-15T04:10:02;36.90;;;14.93;;
30384;SDS011;17181;51.002;4.096;2023-02-15T04:12:47;46.57;;;16.67;;
30384;SDS011;17181;51.002;4.096;2023-02-15T04:15:12;45.57;;;14.87;;
30384;SDS011;17181;51.002;4.096;2023-02-15T04:17:57;32.33;;;16.07;;
30384;SDS011;17181;51.002;4.096;2023-02-15T04:20:23;39.17;;;16.90;;
30384;SDS011;17181;51.002;4.096;2023-02-15T04:23:07;30.27;;;14.63;;
30384;SDS011;17181;51.002;4.096;2023-02-15T04:25:51;33.17;;;15.83;;
30384;SDS011;17181;51.002;4.096;2023-02-15T04:28:17;26.83;;;14.97;;
30384;SDS011;17181;51.002;4.096;2023-02-15T04:30:42;39.77;;;17.03;;
30384;SDS011;17181;51.002;4.096;2023-02-15T04:33:08;36.53;;;16.13;;
30384;SDS011;17181;51.002;4.096;2023-02-15T04:35:35;38.80;;;15.97;;
30384;SDS011;17181;51.002;4.096;2023-02-15T04:38:00;37.87;;;15.80;;
30384;SDS011;17181;51.002;4.096;2023-02-15T04:40:26;35.77;;;16.70;;
30384;SDS011;17181;51.002;4.096;2023-02-15T04:42:52;29.37;;;15.37;;
30384;SDS011;17181;51.002;4.096;2023-02-15T04:45:18;42.70;;;16.67;;
30384;SDS011;17181;51.002;4.096;2023-02-15T04:47:44;37.63;;;15.83;;
30384;SDS011;17181;51.002;4.096;2023-02-15T04:50:10;43.10;;;16.27;;
30384;SDS011;17181;51.002;4.096;2023-02-15T04:52:36;36.90;;;16.57;;
30384;SDS011;17181;51.002;4.096;2023-02-15T04:55:02;26.93;;;13.60;;
30384;SDS011;17181;51.002;4.096;2023-02-15T04:57:27;28.73;;;13.90;;
30384;SDS011;17181;51.002;4.096;2023-02-15T04:59:53;31.00;;;15.80;;
30384;SDS011;17181;51.002;4.096;2023-02-15T05:02:19;26.53;;;14.37;;
30384;SDS011;17181;51.002;4.096;2023-02-15T05:04:45;35.43;;;13.40;;
30384;SDS011;17181;51.002;4.096;2023-02-15T05:07:11;35.33;;;16.20;;
30384;SDS011;17181;51.002;4.096;2023-02-15T05:09:36;38.67;;;15.13;;
30384;SDS011;17181;51.002;4.096;2023-02-15T05:12:02;35.83;;;13.23;;
30384;SDS011;17181;51.002;4.096;2023-02-15T05:14:28;27.90;;;13.63;;
30384;SDS011;17181;51.002;4.096;2023-02-15T05:16:54;26.80;;;13.67;;
30384;SDS011;17181;51.002;4.096;2023-02-15T05:19:20;28.13;;;12.83;;
30384;SDS011;17181;51.002;4.096;2023-02-15T05:21:45;29.00;;;14.40;;
30384;SDS011;17181;51.002;4.096;2023-02-15T05:24:11;39.97;;;15.13;;
30384;SDS011;17181;51.002;4.096;2023-02-15T05:26:55;40.53;;;15.10;;
30384;SDS011;17181;51.002;4.096;2023-02-15T05:29:40;37.40;;;15.43;;
30384;SDS011;17181;51.002;4.096;2023-02-15T05:32:06;26.87;;;11.70;;
30384;SDS011;17181;51.002;4.096;2023-02-15T05:34:31;29.63;;;14.67;;
30384;SDS011;17181;51.002;4.096;2023-02-15T05:36:57;42.00;;;17.37;;
30384;SDS011;17181;51.002;4.096;2023-02-15T05:39:23;34.07;;;15.80;;
30384;SDS011;17181;51.002;4.096;2023-02-15T05:41:49;23.87;;;13.43;;
30384;SDS011;17181;51.002;4.096;2023-02-15T05:44:14;38.47;;;16.80;;
30384;SDS011;17181;51.002;4.096;2023-02-15T05:46:40;46.47;;;15.90;;
30384;SDS011;17181;51.002;4.096;2023-02-15T05:49:06;25.30;;;14.77;;
30384;SDS011;17181;51.002;4.096;2023-02-15T05:51:32;32.80;;;12.93;;
30384;SDS011;17181;51.002;4.096;2023-02-15T05:53:57;26.87;;;13.43;;
30384;SDS011;17181;51.002;4.096;2023-02-15T05:56:23;26.13;;;13.23;;
30384;SDS011;17181;51.002;4.096;2023-02-15T05:58:49;26.80;;;14.17;;
30384;SDS011;17181;51.002;4.096;2023-02-15T06:01:18;30.53;;;14.23;;
30384;SDS011;17181;51.002;4.096;2023-02-15T06:03:46;29.47;;;14.37;;
30384;SDS011;17181;51.002;4.096;2023-02-15T06:06:11;32.80;;;14.33;;
30384;SDS011;17181;51.002;4.096;2023-02-15T06:08:38;38.00;;;14.27;;
30384;SDS011;17181;51.002;4.096;2023-02-15T06:11:04;23.30;;;12.57;;
30384;SDS011;17181;51.002;4.096;2023-02-15T06:13:31;28.70;;;14.90;;
30384;SDS011;17181;51.002;4.096;2023-02-15T06:15:57;33.03;;;14.10;;
30384;SDS011;17181;51.002;4.096;2023-02-15T06:18:23;26.53;;;13.40;;
30384;SDS011;17181;51.002;4.096;2023-02-15T06:20:48;29.10;;;13.53;;
30384;SDS011;17181;51.002;4.096;2023-02-15T06:23:14;27.47;;;11.87;;
30384;SDS011;17181;51.002;4.096;2023-02-15T06:25:41;30.07;;;13.07;;
30384;SDS011;17181;51.002;4.096;2023-02-15T06:28:07;20.20;;;9.53;;
30384;SDS011;17181;51.002;4.096;2023-02-15T06:30:33;30.80;;;12.70;;
30384;SDS011;17181;51.002;4.096;2023-02-15T06:32:58;25.80;;;12.50;;
30384;SDS011;17181;51.002;4.096;2023-02-15T06:35:24;32.23;;;11.60;;
30384;SDS011;17181;51.002;4.096;2023-02-15T06:37:50;30.13;;;13.47;;
30384;SDS011;17181;51.002;4.096;2023-02-15T06:40:16;27.67;;;10.93;;
30384;SDS011;17181;51.002;4.096;2023-02-15T06:42:42;27.53;;;12.63;;
30384;SDS011;17181;51.002;4.096;2023-02-15T06:45:10;30.20;;;13.10;;
30384;SDS011;17181;51.002;4.096;2023-02-15T06:47:36;31.53;;;13.00;;
30384;SDS011;17181;51.002;4.096;2023-02-15T06:50:06;27.23;;;13.00;;
30384;SDS011;17181;51.002;4.096;2023-02-15T06:52:32;38.23;;;12.07;;
30384;SDS011;17181;51.002;4.096;2023-02-15T06:54:58;26.57;;;13.53;;
30384;SDS011;17181;51.002;4.096;2023-02-15T06:57:24;40.90;;;15.67;;
30384;SDS011;17181;51.002;4.096;2023-02-15T06:59:50;19.47;;;10.83;;
30384;SDS011;17181;51.002;4.096;2023-02-15T07:02:15;23.97;;;10.40;;
30384;SDS011;17181;51.002;4.096;2023-02-15T07:04:41;36.83;;;11.60;;
30384;SDS011;17181;51.002;4.096;2023-02-15T07:07:08;22.70;;;11.53;;
30384;SDS011;17181;51.002;4.096;2023-02-15T07:09:35;27.33;;;12.77;;
30384;SDS011;17181;51.002;4.096;2023-02-15T07:12:01;26.37;;;12.30;;
30384;SDS011;17181;51.002;4.096;2023-02-15T07:14:46;55.40;;;14.43;;
30384;SDS011;17181;51.002;4.096;2023-02-15T07:17:11;32.27;;;13.43;;
30384;SDS011;17181;51.002;4.096;2023-02-15T07:19:37;26.77;;;12.37;;
30384;SDS011;17181;51.002;4.096;2023-02-15T07:22:03;22.77;;;12.27;;
30384;SDS011;17181;51.002;4.096;2023-02-15T07:24:30;33.67;;;13.93;;
30384;SDS011;17181;51.002;4.096;2023-02-15T07:26:55;47.23;;;15.23;;
30384;SDS011;17181;51.002;4.096;2023-02-15T07:29:22;22.67;;;14.40;;
30384;SDS011;17181;51.002;4.096;2023-02-15T07:31:48;28.43;;;13.60;;
30384;SDS011;17181;51.002;4.096;2023-02-15T07:34:14;24.83;;;12.67;;
30384;SDS011;17181;51.002;4.096;2023-02-15T07:36:40;25.73;;;13.53;;
30384;SDS011;17181;51.002;4.096;2023-02-15T07:39:06;32.47;;;15.37;;
30384;SDS011;17181;51.002;4.096;2023-02-15T07:41:32;31.27;;;16.13;;
30384;SDS011;17181;51.002;4.096;2023-02-15T07:43:58;29.67;;;14.07;;
30384;SDS011;17181;51.002;4.096;2023-02-15T07:46:24;35.20;;;17.97;;
30384;SDS011;17181;51.002;4.096;2023-02-15T07:48:49;37.13;;;15.10;;
30384;SDS011;17181;51.002;4.096;2023-02-15T07:51:15;33.23;;;15.03;;
30384;SDS011;17181;51.002;4.096;2023-02-15T07:53:41;28.97;;;12.47;;
30384;SDS011;17181;51.002;4.096;2023-02-15T07:56:10;29.57;;;13.87;;
30384;SDS011;17181;51.002;4.096;2023-02-15T07:58:37;48.10;;;16.97;;
30384;SDS011;17181;51.002;4.096;2023-02-15T08:01:16;26.93;;;14.47;;
30384;SDS011;17181;51.002;4.096;2023-02-15T08:03:58;47.87;;;13.30;;
30384;SDS011;17181;51.002;4.096;2023-02-15T08:06:25;28.43;;;14.37;;
30384;SDS011;17181;51.002;4.096;2023-02-15T08:08:55;27.80;;;13.10;;
30384;SDS011;17181;51.002;4.096;2023-02-15T08:11:28;25.53;;;13.77;;
30384;SDS011;17181;51.002;4.096;2023-02-15T08:19:12;32.43;;;13.27;;
30384;SDS011;17181;51.002;4.096;2023-02-15T08:21:40;26.33;;;12.90;;
30384;SDS011;17181;51.002;4.096;2023-02-15T08:24:11;25.23;;;13.20;;
30384;SDS011;17181;51.002;4.096;2023-02-15T08:26:38;42.07;;;12.27;;
30384;SDS011;17181;51.002;4.096;2023-02-15T08:29:05;36.87;;;15.03;;
30384;SDS011;17181;51.002;4.096;2023-02-15T08:31:32;35.80;;;16.77;;
30384;SDS011;17181;51.002;4.096;2023-02-15T08:33:58;32.97;;;16.23;;
30384;SDS011;17181;51.002;4.096;2023-02-15T08:36:25;32.90;;;16.23;;
30384;SDS011;17181;51.002;4.096;2023-02-15T08:38:53;32.00;;;14.70;;
30384;SDS011;17181;51.002;4.096;2023-02-15T08:41:21;27.50;;;12.50;;
30384;SDS011;17181;51.002;4.096;2023-02-15T08:43:49;33.13;;;14.53;;
30384;SDS011;17181;51.002;4.096;2023-02-15T08:46:18;61.00;;;15.60;;
30384;SDS011;17181;51.002;4.096;2023-02-15T08:48:45;36.27;;;16.33;;
30384;SDS011;17181;51.002;4.096;2023-02-15T08:51:12;34.20;;;12.97;;
30384;SDS011;17181;51.002;4.096;2023-02-15T08:53:41;29.17;;;11.07;;
30384;SDS011;17181;51.002;4.096;2023-02-15T08:56:09;15.93;;;7.13;;
30384;SDS011;17181;51.002;4.096;2023-02-15T08:58:35;12.53;;;7.33;;
30384;SDS011;17181;51.002;4.096;2023-02-15T09:01:01;17.90;;;7.37;;
30384;SDS011;17181;51.002;4.096;2023-02-15T09:03:33;12.60;;;5.40;;
30384;SDS011;17181;51.002;4.096;2023-02-15T09:05:59;1.90;;;1.80;;
30384;SDS011;17181;51.002;4.096;2023-02-15T09:08:25;22.80;;;10.87;;
30384;SDS011;17181;51.002;4.096;2023-02-15T09:10:51;20.20;;;10.50;;
30384;SDS011;17181;51.002;4.096;2023-02-15T09:13:17;25.33;;;9.73;;
30384;SDS011;17181;51.002;4.096;2023-02-15T09:15:43;20.50;;;10.93;;
30384;SDS011;17181;51.002;4.096;2023-02-15T09:18:09;9.87;;;5.17;;
30384;SDS011;17181;51.002;4.096;2023-02-15T09:20:36;16.83;;;5.27;;
30384;SDS011;17181;51.002;4.096;2023-02-15T09:23:02;37.33;;;13.40;;
30384;SDS011;17181;51.002;4.096;2023-02-15T09:25:28;18.47;;;8.33;;
30384;SDS011;17181;51.002;4.096;2023-02-15T09:27:53;7.60;;;3.33;;
30384;SDS011;17181;51.002;4.096;2023-02-15T09:30:21;17.00;;;7.43;;
30384;SDS011;17181;51.002;4.096;2023-02-15T09:32:47;15.37;;;6.13;;
30384;SDS011;17181;51.002;4.096;2023-02-15T09:35:12;34.53;;;11.53;;
30384;SDS011;17181;51.002;4.096;2023-02-15T09:37:38;19.93;;;9.20;;
30384;SDS011;17181;51.002;4.096;2023-02-15T09:40:04;11.30;;;4.00;;
30384;SDS011;17181;51.002;4.096;2023-02-15T09:58:51;19.10;;;3.93;;
30384;SDS011;17181;51.002;4.096;2023-02-15T10:07:16;33.10;;;11.73;;
30384;SDS011;17181;51.002;4.096;2023-02-15T10:13:00;24.43;;;10.93;;
30384;SDS011;17181;51.002;4.096;2023-02-15T10:15:42;15.80;;;8.57;;
30384;SDS011;17181;51.002;4.096;2023-02-15T10:18:38;36.33;;;15.23;;
30384;SDS011;17181;51.002;4.096;2023-02-15T10:26:18;16.93;;;8.90;;
30384;SDS011;17181;51.002;4.096;2023-02-15T10:28:49;17.67;;;8.47;;
30384;SDS011;17181;51.002;4.096;2023-02-15T10:34:17;22.97;;;10.37;;
30384;SDS011;17181;51.002;4.096;2023-02-15T10:50:53;8.10;;;3.03;;
30384;SDS011;17181;51.002;4.096;2023-02-15T10:56:29;13.17;;;5.93;;
30384;SDS011;17181;51.002;4.096;2023-02-15T11:07:35;8.93;;;5.67;;
30384;SDS011;17181;51.002;4.096;2023-02-15T11:12:44;12.77;;;7.03;;
30384;SDS011;17181;51.002;4.096;2023-02-15T11:15:31;14.03;;;6.80;;
30384;SDS011;17181;51.002;4.096;2023-02-15T11:18:44;25.77;;;10.27;;
30384;SDS011;17181;51.002;4.096;2023-02-15T11:21:01;13.70;;;7.10;;
30384;SDS011;17181;51.002;4.096;2023-02-15T11:23:45;21.97;;;9.40;;
30384;SDS011;17181;51.002;4.096;2023-02-15T11:26:24;14.43;;;8.27;;
30384;SDS011;17181;51.002;4.096;2023-02-15T11:28:59;14.10;;;7.47;;
30384;SDS011;17181;51.002;4.096;2023-02-15T11:31:37;19.93;;;8.27;;
30384;SDS011;17181;51.002;4.096;2023-02-15T11:34:13;17.83;;;9.30;;
30384;SDS011;17181;51.002;4.096;2023-02-15T11:37:08;24.83;;;12.43;;
30384;SDS011;17181;51.002;4.096;2023-02-15T11:39:38;24.00;;;11.37;;
30384;SDS011;17181;51.002;4.096;2023-02-15T11:42:10;31.10;;;14.33;;
30384;SDS011;17181;51.002;4.096;2023-02-15T11:44:44;28.17;;;12.97;;
30384;SDS011;17181;51.002;4.096;2023-02-15T11:47:19;33.47;;;15.27;;
30384;SDS011;17181;51.002;4.096;2023-02-15T11:49:47;25.37;;;13.47;;
30384;SDS011;17181;51.002;4.096;2023-02-15T11:52:14;30.73;;;13.40;;
30384;SDS011;17181;51.002;4.096;2023-02-15T11:54:43;34.03;;;14.40;;
30384;SDS011;17181;51.002;4.096;2023-02-15T11:57:17;39.57;;;16.77;;
30384;SDS011;17181;51.002;4.096;2023-02-15T12:00:10;35.50;;;13.80;;
30384;SDS011;17181;51.002;4.096;2023-02-15T12:02:46;13.23;;;6.63;;
30384;SDS011;17181;51.002;4.096;2023-02-15T12:05:17;18.43;;;7.00;;
30384;SDS011;17181;51.002;4.096;2023-02-15T12:07:49;47.27;;;15.03;;
30384;SDS011;17181;51.002;4.096;2023-02-15T12:10:26;29.17;;;10.93;;
30384;SDS011;17181;51.002;4.096;2023-02-15T12:15:35;28.50;;;11.77;;
30384;SDS011;17181;51.002;4.096;2023-02-15T12:18:02;35.40;;;15.50;;
30384;SDS011;17181;51.002;4.096;2023-02-15T12:20:32;22.63;;;9.73;;
30384;SDS011;17181;51.002;4.096;2023-02-15T12:22:59;7.93;;;2.80;;
30384;SDS011;17181;51.002;4.096;2023-02-15T12:27:59;38.30;;;16.33;;
30384;SDS011;17181;51.002;4.096;2023-02-15T12:30:29;32.60;;;14.53;;
30384;SDS011;17181;51.002;4.096;2023-02-15T12:33:05;14.63;;;7.87;;
30384;SDS011;17181;51.002;4.096;2023-02-15T12:35:46;33.83;;;13.37;;
30384;SDS011;17181;51.002;4.096;2023-02-15T12:40:40;8.47;;;4.67;;
30384;SDS011;17181;51.002;4.096;2023-02-15T12:43:24;36.03;;;13.53;;
30384;SDS011;17181;51.002;4.096;2023-02-15T12:49:04;17.07;;;6.50;;
30384;SDS011;17181;51.002;4.096;2023-02-15T12:51:42;10.43;;;4.80;;
30384;SDS011;17181;51.002;4.096;2023-02-15T13:02:24;23.97;;;5.90;;
30384;SDS011;17181;51.002;4.096;2023-02-15T13:07:38;26.00;;;14.13;;
30384;SDS011;17181;51.002;4.096;2023-02-15T13:10:58;34.23;;;12.90;;
30384;SDS011;17181;51.002;4.096;2023-02-15T13:13:29;19.50;;;9.80;;
30384;SDS011;17181;51.002;4.096;2023-02-15T13:15:59;5.80;;;3.93;;
30384;SDS011;17181;51.002;4.096;2023-02-15T13:18:36;23.97;;;11.20;;
30384;SDS011;17181;51.002;4.096;2023-02-15T13:21:06;22.67;;;10.50;;
30384;SDS011;17181;51.002;4.096;2023-02-15T13:23:36;24.90;;;9.07;;
30384;SDS011;17181;51.002;4.096;2023-02-15T13:26:04;17.23;;;8.33;;
30384;SDS011;17181;51.002;4.096;2023-02-15T13:28:37;23.37;;;10.80;;
30384;SDS011;17181;51.002;4.096;2023-02-15T13:31:15;28.67;;;14.87;;
30384;SDS011;17181;51.002;4.096;2023-02-15T13:34:27;17.17;;;7.37;;
30384;SDS011;17181;51.002;4.096;2023-02-15T13:39:34;18.93;;;9.63;;
30384;SDS011;17181;51.002;4.096;2023-02-15T13:42:26;16.07;;;6.93;;
30384;SDS011;17181;51.002;4.096;2023-02-15T13:55:52;27.53;;;13.97;;
30384;SDS011;17181;51.002;4.096;2023-02-15T14:01:10;34.87;;;12.60;;
30384;SDS011;17181;51.002;4.096;2023-02-15T14:06:27;53.10;;;18.87;;
30384;SDS011;17181;51.002;4.096;2023-02-15T14:13:01;26.90;;;13.03;;
30384;SDS011;17181;51.002;4.096;2023-02-15T14:21:47;11.40;;;5.83;;
30384;SDS011;17181;51.002;4.096;2023-02-15T14:24:20;31.30;;;14.80;;
30384;SDS011;17181;51.002;4.096;2023-02-15T14:27:14;37.27;;;16.53;;
30384;SDS011;17181;51.002;4.096;2023-02-15T14:30:03;33.13;;;13.93;;
30384;SDS011;17181;51.002;4.096;2023-02-15T14:32:40;23.67;;;11.37;;
30384;SDS011;17181;51.002;4.096;2023-02-15T14:35:17;24.27;;;12.10;;
30384;SDS011;17181;51.002;4.096;2023-02-15T14:37:59;19.00;;;11.23;;
30384;SDS011;17181;51.002;4.096;2023-02-15T14:43:37;24.77;;;10.77;;
30384;SDS011;17181;51.002;4.096;2023-02-15T14:48:56;33.40;;;16.93;;
30384;SDS011;17181;51.002;4.096;2023-02-15T14:54:10;23.27;;;11.70;;
30384;SDS011;17181;51.002;4.096;2023-02-15T15:02:17;28.30;;;12.30;;
30384;SDS011;17181;51.002;4.096;2023-02-15T15:10:07;25.83;;;12.30;;
30384;SDS011;17181;51.002;4.096;2023-02-15T15:12:51;32.10;;;11.00;;
30384;SDS011;17181;51.002;4.096;2023-02-15T15:17:59;18.90;;;9.40;;
30384;SDS011;17181;51.002;4.096;2023-02-15T15:20:54;20.17;;;10.00;;
30384;SDS011;17181;51.002;4.096;2023-02-15T15:25:55;15.33;;;8.57;;
30384;SDS011;17181;51.002;4.096;2023-02-15T15:42:31;26.33;;;13.37;;
30384;SDS011;17181;51.002;4.096;2023-02-15T15:45:58;36.97;;;15.17;;
30384;SDS011;17181;51.002;4.096;2023-02-15T15:48:24;30.23;;;13.97;;
30384;SDS011;17181;51.002;4.096;2023-02-15T15:50:58;31.93;;;14.57;;
30384;SDS011;17181;51.002;4.096;2023-02-15T15:53:27;32.40;;;14.20;;
30384;SDS011;17181;51.002;4.096;2023-02-15T15:56:06;41.60;;;15.27;;
30384;SDS011;17181;51.002;4.096;2023-02-15T15:58:37;25.80;;;13.23;;
30384;SDS011;17181;51.002;4.096;2023-02-15T16:01:10;34.20;;;15.30;;
30384;SDS011;17181;51.002;4.096;2023-02-15T16:03:48;29.00;;;12.40;;
30384;SDS011;17181;51.002;4.096;2023-02-15T16:06:26;28.20;;;12.47;;
30384;SDS011;17181;51.002;4.096;2023-02-15T16:08:52;30.20;;;14.83;;
30384;SDS011;17181;51.002;4.096;2023-02-15T16:11:25;30.93;;;14.83;;
30384;SDS011;17181;51.002;4.096;2023-02-15T16:13:54;31.53;;;14.43;;
30384;SDS011;17181;51.002;4.096;2023-02-15T16:16:21;32.40;;;15.67;;
30384;SDS011;17181;51.002;4.096;2023-02-15T16:18:49;33.30;;;15.67;;
30384;SDS011;17181;51.002;4.096;2023-02-15T16:21:20;32.83;;;15.13;;
30384;SDS011;17181;51.002;4.096;2023-02-15T16:29:28;28.37;;;13.53;;
30384;SDS011;17181;51.002;4.096;2023-02-15T16:35:01;31.80;;;13.80;;
30384;SDS011;17181;51.002;4.096;2023-02-15T16:37:33;32.70;;;14.20;;
30384;SDS011;17181;51.002;4.096;2023-02-15T16:40:00;38.97;;;15.53;;
30384;SDS011;17181;51.002;4.096;2023-02-15T16:42:26;35.00;;;16.30;;
30384;SDS011;17181;51.002;4.096;2023-02-15T16:44:56;29.77;;;15.27;;
30384;SDS011;17181;51.002;4.096;2023-02-15T16:47:28;29.43;;;14.03;;
30384;SDS011;17181;51.002;4.096;2023-02-15T16:49:58;24.70;;;13.57;;
30384;SDS011;17181;51.002;4.096;2023-02-15T16:52:26;37.93;;;14.43;;
30384;SDS011;17181;51.002;4.096;2023-02-15T16:54:56;28.83;;;14.47;;
30384;SDS011;17181;51.002;4.096;2023-02-15T16:57:26;26.67;;;14.70;;
30384;SDS011;17181;51.002;4.096;2023-02-15T16:59:55;41.67;;;16.90;;
30384;SDS011;17181;51.002;4.096;2023-02-15T17:02:26;28.33;;;14.90;;
30384;SDS011;17181;51.002;4.096;2023-02-15T17:07:41;33.40;;;15.23;;
30384;SDS011;17181;51.002;4.096;2023-02-15T17:13:20;27.27;;;14.80;;
30384;SDS011;17181;51.002;4.096;2023-02-15T17:18:24;29.77;;;13.93;;
30384;SDS011;17181;51.002;4.096;2023-02-15T17:21:16;29.17;;;15.00;;
30384;SDS011;17181;51.002;4.096;2023-02-15T17:23:48;33.00;;;15.07;;
30384;SDS011;17181;51.002;4.096;2023-02-15T17:26:20;45.80;;;16.20;;
30384;SDS011;17181;51.002;4.096;2023-02-15T17:28:48;37.13;;;17.13;;
30384;SDS011;17181;51.002;4.096;2023-02-15T17:31:17;38.27;;;16.63;;
30384;SDS011;17181;51.002;4.096;2023-02-15T17:33:44;24.50;;;12.73;;
30384;SDS011;17181;51.002;4.096;2023-02-15T17:36:14;36.93;;;15.93;;
30384;SDS011;17181;51.002;4.096;2023-02-15T17:41:22;45.53;;;18.20;;
30384;SDS011;17181;51.002;4.096;2023-02-15T17:43:52;24.17;;;10.17;;
30384;SDS011;17181;51.002;4.096;2023-02-15T17:46:17;33.90;;;14.73;;
30384;SDS011;17181;51.002;4.096;2023-02-15T17:48:47;17.70;;;10.10;;
30384;SDS011;17181;51.002;4.096;2023-02-15T17:51:15;36.10;;;17.83;;
30384;SDS011;17181;51.002;4.096;2023-02-15T17:53:42;39.83;;;16.07;;
30384;SDS011;17181;51.002;4.096;2023-02-15T17:56:26;38.43;;;16.17;;
30384;SDS011;17181;51.002;4.096;2023-02-15T17:58:52;11.63;;;5.33;;
30384;SDS011;17181;51.002;4.096;2023-02-15T18:01:18;23.43;;;8.63;;
30384;SDS011;17181;51.002;4.096;2023-02-15T18:04:04;24.73;;;11.10;;
30384;SDS011;17181;51.002;4.096;2023-02-15T18:06:52;30.60;;;12.73;;
30384;SDS011;17181;51.002;4.096;2023-02-15T18:09:37;33.87;;;14.53;;
30384;SDS011;17181;51.002;4.096;2023-02-15T18:12:28;13.67;;;7.10;;
30384;SDS011;17181;51.002;4.096;2023-02-15T18:14:56;38.57;;;17.60;;
30384;SDS011;17181;51.002;4.096;2023-02-15T18:17:27;13.10;;;7.50;;